createdAt,value
2022-07-29T00:00:27.607Z,19.06
2022-07-29T00:01:27.705Z,19.09
2022-07-29T00:02:27.791Z,19.09
2022-07-29T00:03:27.796Z,19.09
2022-07-29T00:04:27.954Z,19.09
2022-07-29T00:05:27.991Z,19.10
2022-07-29T00:06:28.016Z,19.10
2022-07-29T00:07:28.108Z,19.12
2022-07-29T00:08:28.176Z,19.12
2022-07-29T00:09:28.266Z,19.10
2022-07-29T00:10:28.341Z,19.09
2022-07-29T00:11:27.466Z,19.07
2022-07-29T00:12:27.712Z,19.09
2022-07-29T00:13:32.402Z,19.07
2022-07-29T00:14:28.702Z,19.06
2022-07-29T00:15:27.756Z,19.06
2022-07-29T00:16:27.879Z,19.06
2022-07-29T00:17:27.825Z,19.06
2022-07-29T00:18:27.841Z,19.06
2022-07-29T00:19:27.889Z,19.05
2022-07-29T00:20:27.925Z,19.02
2022-07-29T00:21:27.977Z,19.02
2022-07-29T00:22:28.028Z,19.02
2022-07-29T00:23:28.095Z,19.05
2022-07-29T00:24:28.129Z,19.07
2022-07-29T00:25:28.204Z,19.05
2022-07-29T00:26:27.199Z,19.05
2022-07-29T00:27:27.272Z,18.99
2022-07-29T00:28:27.352Z,18.97
2022-07-29T00:29:35.216Z,18.94
2022-07-29T00:30:28.451Z,18.94
2022-07-29T00:31:27.262Z,18.93
2022-07-29T00:32:27.249Z,18.90
2022-07-29T00:33:27.318Z,18.86
2022-07-29T00:34:27.365Z,18.84
2022-07-29T00:35:27.383Z,18.79
2022-07-29T00:36:27.431Z,18.76
2022-07-29T00:37:27.460Z,18.76
2022-07-29T00:38:27.523Z,18.75
2022-07-29T00:39:27.584Z,18.76
2022-07-29T00:40:27.644Z,18.76
2022-07-29T00:41:27.665Z,18.76
2022-07-29T00:42:27.719Z,18.78
2022-07-29T00:43:27.770Z,18.75
2022-07-29T00:44:27.855Z,18.74
2022-07-29T00:45:27.918Z,18.72
2022-07-29T00:46:27.013Z,18.71
2022-07-29T00:47:27.022Z,18.69
2022-07-29T00:48:27.092Z,18.69
2022-07-29T00:49:27.210Z,18.62
2022-07-29T00:50:27.284Z,18.59
2022-07-29T00:51:27.305Z,18.54
2022-07-29T00:52:27.361Z,18.54
2022-07-29T00:53:27.406Z,18.54
2022-07-29T00:54:27.474Z,18.51
2022-07-29T00:55:27.563Z,18.51
2022-07-29T00:56:27.565Z,18.50
2022-07-29T00:57:27.632Z,18.51
2022-07-29T00:58:27.678Z,18.50
2022-07-29T00:59:26.715Z,18.54
2022-07-29T01:00:27.904Z,18.54
2022-07-29T01:01:26.926Z,18.57
2022-07-29T01:02:26.976Z,18.59
2022-07-29T01:03:26.966Z,18.57
2022-07-29T01:04:27.023Z,18.60
2022-07-29T01:05:51.590Z,18.56
2022-07-29T01:06:28.175Z,18.56
2022-07-29T01:07:27.201Z,18.57
2022-07-29T01:08:27.262Z,18.57
2022-07-29T01:09:45.235Z,18.59
2022-07-29T01:10:28.419Z,18.59
2022-07-29T01:11:27.486Z,18.59
2022-07-29T01:12:27.577Z,18.59
2022-07-29T01:13:27.618Z,18.59
2022-07-29T01:14:26.649Z,18.59
2022-07-29T01:15:26.696Z,18.57
2022-07-29T01:16:26.846Z,18.59
2022-07-29T01:17:26.848Z,18.56
2022-07-29T01:18:26.899Z,18.54
2022-07-29T01:19:26.943Z,18.54
2022-07-29T01:20:31.953Z,18.54
2022-07-29T01:21:28.067Z,18.51
2022-07-29T01:22:27.128Z,18.53
2022-07-29T01:23:27.197Z,18.53
2022-07-29T01:24:27.287Z,18.54
2022-07-29T01:25:27.338Z,18.54
2022-07-29T01:26:26.373Z,18.53
2022-07-29T01:27:26.452Z,18.53
2022-07-29T01:28:26.491Z,18.53
2022-07-29T01:29:26.603Z,18.53
2022-07-29T01:30:27.650Z,18.51
2022-07-29T01:31:26.872Z,18.50
2022-07-29T01:32:28.482Z,18.47
2022-07-29T01:33:26.900Z,18.46
2022-07-29T01:34:26.968Z,18.44
2022-07-29T01:35:27.041Z,18.42
2022-07-29T01:36:27.109Z,18.44
2022-07-29T01:37:27.201Z,18.41
2022-07-29T01:38:26.222Z,18.39
2022-07-29T01:39:26.279Z,18.39
2022-07-29T01:40:26.412Z,18.38
2022-07-29T01:41:26.451Z,18.34
2022-07-29T01:42:26.527Z,18.31
2022-07-29T01:43:26.593Z,18.28
2022-07-29T01:44:26.759Z,18.28
2022-07-29T01:45:26.751Z,18.26
2022-07-29T01:46:26.870Z,18.23
2022-07-29T01:47:26.887Z,18.21
2022-07-29T01:48:26.942Z,18.14
2022-07-29T01:49:27.063Z,18.11
2022-07-29T01:50:26.062Z,18.10
2022-07-29T01:51:26.163Z,18.11
2022-07-29T01:52:26.205Z,18.09
2022-07-29T01:53:26.217Z,18.10
2022-07-29T01:54:26.107Z,18.10
2022-07-29T01:55:26.145Z,18.10
2022-07-29T01:56:26.199Z,18.09
2022-07-29T01:57:26.250Z,18.09
2022-07-29T01:58:26.303Z,18.09
2022-07-29T01:59:26.363Z,18.09
2022-07-29T02:00:26.044Z,18.05
2022-07-29T02:01:26.134Z,18.05
2022-07-29T02:02:26.191Z,18.04
2022-07-29T02:03:26.220Z,18.04
2022-07-29T02:04:29.347Z,18.04
2022-07-29T02:05:26.436Z,18.01
2022-07-29T02:06:26.449Z,18.01
2022-07-29T02:07:26.547Z,17.99
2022-07-29T02:08:26.587Z,18.02
2022-07-29T02:09:26.699Z,18.02
2022-07-29T02:10:27.726Z,18.02
2022-07-29T02:11:25.812Z,18.01
2022-07-29T02:12:25.874Z,18.05
2022-07-29T02:13:25.964Z,18.04
2022-07-29T02:14:26.010Z,18.04
2022-07-29T02:15:26.059Z,18.01
2022-07-29T02:16:26.153Z,17.98
2022-07-29T02:17:26.181Z,17.99
2022-07-29T02:18:26.262Z,17.98
2022-07-29T02:19:26.319Z,17.96
2022-07-29T02:20:26.357Z,17.95
2022-07-29T02:21:26.397Z,17.94
2022-07-29T02:22:26.451Z,17.91
2022-07-29T02:23:26.498Z,17.92
2022-07-29T02:24:26.566Z,17.89
2022-07-29T02:25:25.572Z,17.89
2022-07-29T02:26:26.623Z,17.84
2022-07-29T02:27:25.665Z,17.84
2022-07-29T02:28:25.708Z,17.86
2022-07-29T02:29:25.835Z,17.83
2022-07-29T02:30:25.832Z,17.80
2022-07-29T02:31:25.945Z,17.84
2022-07-29T02:32:25.940Z,17.81
2022-07-29T02:33:25.983Z,17.81
2022-07-29T02:34:26.040Z,17.80
2022-07-29T02:35:26.103Z,17.79
2022-07-29T02:36:26.168Z,17.79
2022-07-29T02:37:26.241Z,17.74
2022-07-29T02:38:26.276Z,17.73
2022-07-29T02:39:26.364Z,17.71
2022-07-29T02:40:25.518Z,17.70
2022-07-29T02:41:25.602Z,17.70
2022-07-29T02:42:25.473Z,17.70
2022-07-29T02:43:25.452Z,17.68
2022-07-29T02:44:25.521Z,17.66
2022-07-29T02:45:25.584Z,17.66
2022-07-29T02:46:28.931Z,17.65
2022-07-29T02:47:25.402Z,17.65
2022-07-29T02:48:25.453Z,17.63
2022-07-29T02:49:25.593Z,17.60
2022-07-29T02:50:25.547Z,17.60
2022-07-29T02:51:43.754Z,17.55
2022-07-29T02:52:26.598Z,17.51
2022-07-29T02:53:25.643Z,17.40
2022-07-29T02:54:25.696Z,17.28
2022-07-29T02:55:25.753Z,17.21
2022-07-29T02:56:25.834Z,17.14
2022-07-29T02:57:25.913Z,17.09
2022-07-29T02:58:26.041Z,17.02
2022-07-29T02:59:26.066Z,16.95
2022-07-29T03:00:26.134Z,16.88
2022-07-29T03:01:25.197Z,16.84
2022-07-29T03:02:25.295Z,16.82
2022-07-29T03:03:25.285Z,16.80
2022-07-29T03:04:25.358Z,16.78
2022-07-29T03:05:25.414Z,16.77
2022-07-29T03:06:37.789Z,16.78
2022-07-29T03:07:26.555Z,16.78
2022-07-29T03:08:25.610Z,16.80
2022-07-29T03:09:25.656Z,16.81
2022-07-29T03:10:25.737Z,16.82
2022-07-29T03:11:46.130Z,16.82
2022-07-29T03:12:26.870Z,16.85
2022-07-29T03:13:25.939Z,16.87
2022-07-29T03:14:26.039Z,16.92
2022-07-29T03:15:25.058Z,16.92
2022-07-29T03:16:25.253Z,16.98
2022-07-29T03:17:25.162Z,17.05
2022-07-29T03:18:25.247Z,17.03
2022-07-29T03:19:25.288Z,17.06
2022-07-29T03:20:25.378Z,17.10
2022-07-29T03:21:25.456Z,17.14
2022-07-29T03:22:25.526Z,17.12
2022-07-29T03:23:25.745Z,17.10
2022-07-29T03:24:25.638Z,17.14
2022-07-29T03:25:25.679Z,17.10
2022-07-29T03:26:25.767Z,17.12
2022-07-29T03:27:24.779Z,17.12
2022-07-29T03:28:24.902Z,17.09
2022-07-29T03:29:24.926Z,17.09
2022-07-29T03:30:25.962Z,17.10
2022-07-29T03:31:25.076Z,17.09
2022-07-29T03:32:25.226Z,17.09
2022-07-29T03:33:25.141Z,17.07
2022-07-29T03:34:25.207Z,17.10
2022-07-29T03:35:25.270Z,17.10
2022-07-29T03:36:25.350Z,17.10
2022-07-29T03:37:25.412Z,17.10
2022-07-29T03:38:25.472Z,17.12
2022-07-29T03:39:25.545Z,17.10
2022-07-29T03:40:25.571Z,17.10
2022-07-29T03:41:25.622Z,17.07
2022-07-29T03:42:24.651Z,17.03
2022-07-29T03:43:24.721Z,16.95
2022-07-29T03:44:24.762Z,16.91
2022-07-29T03:45:24.880Z,16.84
2022-07-29T03:46:24.990Z,16.77
2022-07-29T03:47:35.180Z,16.73
2022-07-29T03:48:26.048Z,16.69
2022-07-29T03:49:25.167Z,16.66
2022-07-29T03:50:25.173Z,16.65
2022-07-29T03:51:33.425Z,16.65
2022-07-29T03:52:26.268Z,16.65
2022-07-29T03:53:25.339Z,16.66
2022-07-29T03:54:25.404Z,16.66
2022-07-29T03:55:24.426Z,16.66
2022-07-29T03:56:24.485Z,16.67
2022-07-29T03:57:24.528Z,16.69
2022-07-29T03:58:24.563Z,16.72
2022-07-29T03:59:25.625Z,16.75
2022-07-29T04:00:24.639Z,16.75
2022-07-29T04:01:24.768Z,16.77
2022-07-29T04:02:30.218Z,16.78
2022-07-29T04:03:25.876Z,16.77
2022-07-29T04:04:24.835Z,16.72
2022-07-29T04:05:24.900Z,16.67
2022-07-29T04:06:25.034Z,16.60
2022-07-29T04:07:25.098Z,16.57
2022-07-29T04:08:25.155Z,16.55
2022-07-29T04:09:25.235Z,16.52
2022-07-29T04:10:31.840Z,16.47
2022-07-29T04:11:24.346Z,16.47
2022-07-29T04:12:24.416Z,16.45
2022-07-29T04:13:24.526Z,16.36
2022-07-29T04:14:24.575Z,16.41
2022-07-29T04:15:24.638Z,16.41
2022-07-29T04:16:24.796Z,16.44
2022-07-29T04:17:24.778Z,16.41
2022-07-29T04:18:24.887Z,16.44
2022-07-29T04:19:24.974Z,16.44
2022-07-29T04:20:27.111Z,16.45
2022-07-29T04:21:24.077Z,16.48
2022-07-29T04:22:24.158Z,16.50
2022-07-29T04:23:24.247Z,16.52
2022-07-29T04:24:24.537Z,16.55
2022-07-29T04:25:24.415Z,16.63
2022-07-29T04:26:24.487Z,16.66
2022-07-29T04:27:24.582Z,16.69
2022-07-29T04:28:24.667Z,16.70
2022-07-29T04:29:24.740Z,16.75
2022-07-29T04:30:24.818Z,16.80
2022-07-29T04:31:26.020Z,16.85
2022-07-29T04:32:23.933Z,16.88
2022-07-29T04:33:25.127Z,16.91
2022-07-29T04:34:28.011Z,16.98
2022-07-29T04:35:24.245Z,16.99
2022-07-29T04:36:29.338Z,17.02
2022-07-29T04:37:25.259Z,17.07
2022-07-29T04:38:24.328Z,17.10
2022-07-29T04:39:24.422Z,17.15
2022-07-29T04:40:24.573Z,17.18
2022-07-29T04:41:28.534Z,17.21
2022-07-29T04:42:27.432Z,17.27
2022-07-29T04:43:24.701Z,17.30
2022-07-29T04:44:28.718Z,17.33
2022-07-29T04:45:23.805Z,17.35
2022-07-29T04:46:23.948Z,17.36
2022-07-29T04:47:23.924Z,17.35
2022-07-29T04:48:28.528Z,17.35
2022-07-29T04:49:25.121Z,17.36
2022-07-29T04:50:24.126Z,17.38
2022-07-29T04:51:24.189Z,17.36
2022-07-29T04:52:24.279Z,17.35
2022-07-29T04:53:24.313Z,17.33
2022-07-29T04:54:24.805Z,17.30
2022-07-29T04:55:24.475Z,17.27
2022-07-29T04:56:24.590Z,17.27
2022-07-29T04:57:23.617Z,17.25
2022-07-29T04:58:23.702Z,17.28
2022-07-29T04:59:23.773Z,17.32
2022-07-29T05:00:23.884Z,17.33
2022-07-29T05:01:24.992Z,17.36
2022-07-29T05:02:24.291Z,17.39
2022-07-29T05:03:24.081Z,17.42
2022-07-29T05:04:24.169Z,17.40
2022-07-29T05:05:24.225Z,17.42
2022-07-29T05:06:24.307Z,17.40
2022-07-29T05:07:24.559Z,17.42
2022-07-29T05:08:25.395Z,17.40
2022-07-29T05:09:23.455Z,17.40
2022-07-29T05:10:23.527Z,17.42
2022-07-29T05:11:26.144Z,17.43
2022-07-29T05:12:24.687Z,17.42
2022-07-29T05:13:23.744Z,17.40
2022-07-29T05:14:23.803Z,17.38
2022-07-29T05:15:23.884Z,17.36
2022-07-29T05:16:24.085Z,17.35
2022-07-29T05:17:24.025Z,17.35
2022-07-29T05:18:26.225Z,17.33
2022-07-29T05:19:24.177Z,17.30
2022-07-29T05:20:24.267Z,17.28
2022-07-29T05:21:23.292Z,17.25
2022-07-29T05:22:23.357Z,17.21
2022-07-29T05:23:23.427Z,17.21
2022-07-29T05:24:23.519Z,17.20
2022-07-29T05:25:23.566Z,17.20
2022-07-29T05:26:24.637Z,17.21
2022-07-29T05:27:23.734Z,17.22
2022-07-29T05:28:23.789Z,17.24
2022-07-29T05:29:44.221Z,17.25
2022-07-29T05:30:24.946Z,17.27
2022-07-29T05:31:24.026Z,17.27
2022-07-29T05:32:24.056Z,17.30
2022-07-29T05:33:35.021Z,17.33
2022-07-29T05:34:24.199Z,17.33
2022-07-29T05:35:23.277Z,17.32
2022-07-29T05:36:23.344Z,17.35
2022-07-29T05:37:23.430Z,17.36
2022-07-29T05:38:23.522Z,17.36
2022-07-29T05:39:23.597Z,17.38
2022-07-29T05:40:24.703Z,17.39
2022-07-29T05:41:23.742Z,17.40
2022-07-29T05:42:23.832Z,17.40
2022-07-29T05:43:23.889Z,17.43
2022-07-29T05:44:25.359Z,17.45
2022-07-29T05:45:22.979Z,17.47
2022-07-29T05:46:23.127Z,17.47
2022-07-29T05:47:23.117Z,17.51
2022-07-29T05:48:23.194Z,17.53
2022-07-29T05:49:27.279Z,17.54
2022-07-29T05:50:23.315Z,17.55
2022-07-29T05:51:23.412Z,17.58
2022-07-29T05:52:23.451Z,17.60
2022-07-29T05:53:23.573Z,17.62
2022-07-29T05:54:23.575Z,17.63
2022-07-29T05:55:23.646Z,17.66
2022-07-29T05:56:23.717Z,17.68
2022-07-29T05:57:23.751Z,17.71
2022-07-29T05:58:23.808Z,17.71
2022-07-29T05:59:25.987Z,17.71
2022-07-29T06:00:23.890Z,17.76
2022-07-29T06:01:23.918Z,17.77
2022-07-29T06:02:24.513Z,17.77
2022-07-29T06:03:23.136Z,17.79
2022-07-29T06:04:23.244Z,17.77
2022-07-29T06:05:23.271Z,17.81
2022-07-29T06:06:23.342Z,17.79
2022-07-29T06:07:23.415Z,17.80
2022-07-29T06:08:23.467Z,17.79
2022-07-29T06:09:23.993Z,17.77
2022-07-29T06:10:23.938Z,17.74
2022-07-29T06:11:23.636Z,17.76
2022-07-29T06:12:22.671Z,17.74
2022-07-29T06:13:22.752Z,17.76
2022-07-29T06:14:22.795Z,17.80
2022-07-29T06:15:22.861Z,17.79
2022-07-29T06:16:29.915Z,17.80
2022-07-29T06:17:23.987Z,17.80
2022-07-29T06:18:23.035Z,17.80
2022-07-29T06:19:23.112Z,17.79
2022-07-29T06:20:27.050Z,17.77
2022-07-29T06:21:23.261Z,17.73
2022-07-29T06:22:23.329Z,17.73
2022-07-29T06:23:23.419Z,17.74
2022-07-29T06:24:23.482Z,17.73
2022-07-29T06:25:22.522Z,17.76
2022-07-29T06:26:30.760Z,17.80
2022-07-29T06:27:23.678Z,17.81
2022-07-29T06:28:22.771Z,17.84
2022-07-29T06:29:22.870Z,17.91
2022-07-29T06:30:22.897Z,17.94
2022-07-29T06:31:22.994Z,17.96
2022-07-29T06:32:23.041Z,17.98
2022-07-29T06:33:23.114Z,18.02
2022-07-29T06:34:23.205Z,18.07
2022-07-29T06:35:42.366Z,18.10
2022-07-29T06:36:25.110Z,18.14
2022-07-29T06:37:22.357Z,18.16
2022-07-29T06:38:30.841Z,18.19
2022-07-29T06:39:23.529Z,18.20
2022-07-29T06:40:22.589Z,18.20
2022-07-29T06:41:22.646Z,18.23
2022-07-29T06:42:22.718Z,18.23
2022-07-29T06:43:22.840Z,18.25
2022-07-29T06:44:23.820Z,18.26
2022-07-29T06:45:22.976Z,18.29
2022-07-29T06:46:23.285Z,18.31
2022-07-29T06:47:23.106Z,18.31
2022-07-29T06:48:22.159Z,18.31
2022-07-29T06:49:22.351Z,18.35
2022-07-29T06:50:22.344Z,18.36
2022-07-29T06:51:23.855Z,18.39
2022-07-29T06:52:22.488Z,18.42
2022-07-29T06:53:22.570Z,18.49
2022-07-29T06:54:22.689Z,18.57
2022-07-29T06:55:25.366Z,18.59
2022-07-29T06:56:22.797Z,18.60
2022-07-29T06:57:22.872Z,18.65
2022-07-29T06:58:22.968Z,18.69
2022-07-29T06:59:32.073Z,18.72
2022-07-29T07:00:23.110Z,18.74
2022-07-29T07:01:22.224Z,18.71
2022-07-29T07:02:22.326Z,18.69
2022-07-29T07:03:22.340Z,18.72
2022-07-29T07:04:22.450Z,18.75
2022-07-29T07:05:22.534Z,18.72
2022-07-29T07:06:22.609Z,18.76
2022-07-29T07:07:22.730Z,18.76
2022-07-29T07:08:22.792Z,18.79
2022-07-29T07:09:22.888Z,18.78
2022-07-29T07:10:21.968Z,18.76
2022-07-29T07:11:22.008Z,18.76
2022-07-29T07:12:22.104Z,18.78
2022-07-29T07:13:22.210Z,18.82
2022-07-29T07:14:22.417Z,18.79
2022-07-29T07:15:22.364Z,18.82
2022-07-29T07:16:22.501Z,18.84
2022-07-29T07:17:22.491Z,18.83
2022-07-29T07:18:22.695Z,18.84
2022-07-29T07:19:22.637Z,18.87
2022-07-29T07:20:22.723Z,18.86
2022-07-29T07:21:21.747Z,18.87
2022-07-29T07:22:21.834Z,18.87
2022-07-29T07:23:21.938Z,18.87
2022-07-29T07:24:22.036Z,18.87
2022-07-29T07:25:22.102Z,18.89
2022-07-29T07:26:22.198Z,18.93
2022-07-29T07:27:22.274Z,18.96
2022-07-29T07:28:24.953Z,18.99
2022-07-29T07:29:22.447Z,19.05
2022-07-29T07:30:22.537Z,19.07
2022-07-29T07:31:22.604Z,19.10
2022-07-29T07:32:21.674Z,19.17
2022-07-29T07:33:21.625Z,19.25
2022-07-29T07:34:29.659Z,19.28
2022-07-29T07:35:22.915Z,19.42
2022-07-29T07:36:21.774Z,19.47
2022-07-29T07:37:21.828Z,19.53
2022-07-29T07:38:21.858Z,19.55
2022-07-29T07:39:21.916Z,19.61
2022-07-29T07:40:22.103Z,19.62
2022-07-29T07:41:22.110Z,19.64
2022-07-29T07:42:22.145Z,19.67
2022-07-29T07:43:22.235Z,19.70
2022-07-29T07:44:23.226Z,19.70
2022-07-29T07:45:22.417Z,19.70
2022-07-29T07:46:21.573Z,19.71
2022-07-29T07:47:21.574Z,19.71
2022-07-29T07:48:21.912Z,19.67
2022-07-29T07:49:21.833Z,19.67
2022-07-29T07:50:21.844Z,19.71
2022-07-29T07:51:21.836Z,19.76
2022-07-29T07:52:21.889Z,19.80
2022-07-29T07:53:22.176Z,19.85
2022-07-29T07:54:22.051Z,19.90
2022-07-29T07:55:22.100Z,19.92
2022-07-29T07:56:22.193Z,19.95
2022-07-29T07:57:22.302Z,20.00
2022-07-29T07:58:21.340Z,20.01
2022-07-29T07:59:21.406Z,20.04
2022-07-29T08:00:23.704Z,20.05
2022-07-29T08:01:21.598Z,20.10
2022-07-29T08:02:21.738Z,20.12
2022-07-29T08:03:21.674Z,20.15
2022-07-29T08:04:27.129Z,20.13
2022-07-29T08:05:22.738Z,20.13
2022-07-29T08:06:21.792Z,20.16
2022-07-29T08:07:21.864Z,20.16
2022-07-29T08:08:22.054Z,20.16
2022-07-29T08:09:29.227Z,20.16
2022-07-29T08:10:23.015Z,20.17
2022-07-29T08:11:22.075Z,20.17
2022-07-29T08:12:21.086Z,20.22
2022-07-29T08:13:21.142Z,20.23
2022-07-29T08:14:21.155Z,20.31
2022-07-29T08:15:21.194Z,20.38
2022-07-29T08:16:21.276Z,20.50
2022-07-29T08:17:21.301Z,20.57
2022-07-29T08:18:21.387Z,20.64
2022-07-29T08:19:21.406Z,20.72
2022-07-29T08:20:21.467Z,20.76
2022-07-29T08:21:21.506Z,20.75
2022-07-29T08:22:21.575Z,20.78
2022-07-29T08:23:21.621Z,20.79
2022-07-29T08:24:21.644Z,20.82
2022-07-29T08:25:21.702Z,20.88
2022-07-29T08:26:21.731Z,20.90
2022-07-29T08:27:42.570Z,20.94
2022-07-29T08:28:25.879Z,21.01
2022-07-29T08:29:20.817Z,21.09
2022-07-29T08:30:20.868Z,21.16
2022-07-29T08:31:20.954Z,21.27
2022-07-29T08:32:43.402Z,21.37
2022-07-29T08:33:22.150Z,21.46
2022-07-29T08:34:21.576Z,21.55
2022-07-29T08:35:22.148Z,21.64
2022-07-29T08:36:21.219Z,21.70
2022-07-29T08:37:21.236Z,21.70
2022-07-29T08:38:21.259Z,21.68
2022-07-29T08:39:21.305Z,21.66
2022-07-29T08:40:21.352Z,21.61
2022-07-29T08:41:22.341Z,21.61
2022-07-29T08:42:21.404Z,21.61
2022-07-29T08:43:21.470Z,21.61
2022-07-29T08:44:30.426Z,21.61
2022-07-29T08:45:22.630Z,21.64
2022-07-29T08:46:22.601Z,21.66
2022-07-29T08:47:21.610Z,21.70
2022-07-29T08:48:20.602Z,21.77
2022-07-29T08:49:21.768Z,21.83
2022-07-29T08:50:20.686Z,21.91
2022-07-29T08:51:20.705Z,22.01
2022-07-29T08:52:20.739Z,22.12
2022-07-29T08:53:20.775Z,22.24
2022-07-29T08:54:20.808Z,22.36
2022-07-29T08:55:21.548Z,22.42
2022-07-29T08:56:20.931Z,22.48
2022-07-29T08:57:20.975Z,22.54
2022-07-29T08:58:23.089Z,22.60
2022-07-29T08:59:21.082Z,22.64
2022-07-29T09:00:21.145Z,22.69
2022-07-29T09:01:21.397Z,22.75
2022-07-29T09:02:21.243Z,22.81
2022-07-29T09:03:21.302Z,22.84
2022-07-29T09:04:21.299Z,22.89
2022-07-29T09:05:21.372Z,22.94
2022-07-29T09:06:21.374Z,22.99
2022-07-29T09:07:21.394Z,23.01
2022-07-29T09:08:20.376Z,23.01
2022-07-29T09:09:20.408Z,23.04
2022-07-29T09:10:20.448Z,23.07
2022-07-29T09:11:20.529Z,23.11
2022-07-29T09:12:28.905Z,23.12
2022-07-29T09:13:21.566Z,23.12
2022-07-29T09:14:20.616Z,23.04
2022-07-29T09:15:20.650Z,22.94
2022-07-29T09:16:43.854Z,22.96
2022-07-29T09:17:21.751Z,22.97
2022-07-29T09:18:31.183Z,23.04
2022-07-29T09:19:21.781Z,23.09
2022-07-29T09:20:20.821Z,23.15
2022-07-29T09:21:20.849Z,23.23
2022-07-29T09:22:20.872Z,23.32
2022-07-29T09:23:23.448Z,23.39
2022-07-29T09:24:20.889Z,23.45
2022-07-29T09:25:20.906Z,23.50
2022-07-29T09:26:20.925Z,23.56
2022-07-29T09:27:20.924Z,23.50
2022-07-29T09:28:20.970Z,23.44
2022-07-29T09:29:20.984Z,23.42
2022-07-29T09:30:28.849Z,23.44
2022-07-29T09:31:22.055Z,23.50
2022-07-29T09:32:21.027Z,23.52
2022-07-29T09:33:21.018Z,23.54
2022-07-29T09:34:21.008Z,23.59
2022-07-29T09:35:20.997Z,23.63
2022-07-29T09:36:20.999Z,23.69
2022-07-29T09:37:20.420Z,23.77
2022-07-29T09:38:19.958Z,23.86
2022-07-29T09:39:19.963Z,23.93
2022-07-29T09:40:19.985Z,24.04
2022-07-29T09:41:20.013Z,24.11
2022-07-29T09:42:19.994Z,24.18
2022-07-29T09:43:20.247Z,24.23
2022-07-29T09:44:20.049Z,24.29
2022-07-29T09:45:20.043Z,24.29
2022-07-29T09:46:20.104Z,24.30
2022-07-29T09:47:20.046Z,24.31
2022-07-29T09:48:20.054Z,24.34
2022-07-29T09:49:20.203Z,24.36
2022-07-29T09:50:20.734Z,24.41
2022-07-29T09:51:23.065Z,24.49
2022-07-29T09:52:21.105Z,24.55
2022-07-29T09:53:20.135Z,24.64
2022-07-29T09:54:20.186Z,24.71
2022-07-29T09:55:20.202Z,24.83
2022-07-29T09:56:20.218Z,24.93
2022-07-29T09:57:20.240Z,25.04
2022-07-29T09:58:20.300Z,25.11
2022-07-29T09:59:20.285Z,25.17
2022-07-29T10:00:20.304Z,25.17
2022-07-29T10:01:20.351Z,25.24
2022-07-29T10:02:23.718Z,25.30
2022-07-29T10:03:20.323Z,25.29
2022-07-29T10:04:20.287Z,25.29
2022-07-29T10:05:21.150Z,25.22
2022-07-29T10:06:20.324Z,25.16
2022-07-29T10:07:20.308Z,25.16
2022-07-29T10:08:20.310Z,25.12
2022-07-29T10:09:22.311Z,25.16
2022-07-29T10:10:20.358Z,25.24
2022-07-29T10:11:20.371Z,25.29
2022-07-29T10:12:20.361Z,25.36
2022-07-29T10:13:20.385Z,25.41
2022-07-29T10:14:20.373Z,25.45
2022-07-29T10:15:20.389Z,25.36
2022-07-29T10:16:20.483Z,25.31
2022-07-29T10:17:20.384Z,25.23
2022-07-29T10:18:20.376Z,25.16
2022-07-29T10:19:20.399Z,25.11
2022-07-29T10:20:20.405Z,25.09
2022-07-29T10:21:22.523Z,24.97
2022-07-29T10:22:43.606Z,24.77
2022-07-29T10:23:20.364Z,24.70
2022-07-29T10:24:19.361Z,24.71
2022-07-29T10:25:19.385Z,24.71
2022-07-29T10:26:19.383Z,24.82
2022-07-29T10:27:19.390Z,24.84
2022-07-29T10:28:19.451Z,24.87
2022-07-29T10:29:19.421Z,24.98
2022-07-29T10:30:19.434Z,25.05
2022-07-29T10:31:19.542Z,25.04
2022-07-29T10:32:19.443Z,25.04
2022-07-29T10:33:19.449Z,25.04
2022-07-29T10:34:19.473Z,25.02
2022-07-29T10:35:19.564Z,24.99
2022-07-29T10:36:19.449Z,25.05
2022-07-29T10:37:19.473Z,25.07
2022-07-29T10:38:19.488Z,25.20
2022-07-29T10:39:22.397Z,25.38
2022-07-29T10:40:19.499Z,25.45
2022-07-29T10:41:19.815Z,25.49
2022-07-29T10:43:20.528Z,25.60
2022-07-29T10:44:23.087Z,25.66
2022-07-29T10:45:19.537Z,25.75
2022-07-29T10:46:19.669Z,25.81
2022-07-29T10:47:19.548Z,25.82
2022-07-29T10:48:19.562Z,25.78
2022-07-29T10:49:19.636Z,25.64
2022-07-29T10:50:19.634Z,25.51
2022-07-29T10:51:20.570Z,25.38
2022-07-29T10:52:19.621Z,25.31
2022-07-29T10:53:19.646Z,25.22
2022-07-29T10:54:19.679Z,25.23
2022-07-29T10:55:19.700Z,25.34
2022-07-29T10:56:19.759Z,25.38
2022-07-29T10:57:20.874Z,25.45
2022-07-29T10:58:19.792Z,25.53
2022-07-29T10:59:20.118Z,25.66
2022-07-29T11:00:19.841Z,25.61
2022-07-29T11:01:37.431Z,25.53
2022-07-29T11:02:40.892Z,25.39
2022-07-29T11:03:19.968Z,25.38
2022-07-29T11:04:18.901Z,25.41
2022-07-29T11:05:19.017Z,25.42
2022-07-29T11:07:19.964Z,25.49
2022-07-29T11:08:20.499Z,25.45
2022-07-29T11:09:20.307Z,25.42
2022-07-29T11:10:20.184Z,25.31
2022-07-29T11:11:19.066Z,25.29
2022-07-29T11:12:19.074Z,25.27
2022-07-29T11:13:19.106Z,25.29
2022-07-29T11:14:19.124Z,25.22
2022-07-29T11:15:19.152Z,25.16
2022-07-29T11:16:20.136Z,25.19
2022-07-29T11:17:19.245Z,25.22
2022-07-29T11:18:19.248Z,25.31
2022-07-29T11:19:21.617Z,25.41
2022-07-29T11:20:20.732Z,25.42
2022-07-29T11:21:19.367Z,25.56
2022-07-29T11:22:19.364Z,25.71
2022-07-29T11:23:20.388Z,25.83
2022-07-29T11:24:29.153Z,26.00
2022-07-29T11:25:50.811Z,26.17
2022-07-29T11:26:20.529Z,26.41
2022-07-29T11:27:19.628Z,26.56
2022-07-29T11:28:25.191Z,26.61
2022-07-29T11:29:19.502Z,26.65
2022-07-29T11:30:18.493Z,26.69
2022-07-29T11:31:18.509Z,26.44
2022-07-29T11:32:23.434Z,26.23
2022-07-29T11:33:19.564Z,26.11
2022-07-29T11:34:20.857Z,26.04
2022-07-29T11:35:19.323Z,25.97
2022-07-29T11:36:19.558Z,25.90
2022-07-29T11:37:19.994Z,25.89
2022-07-29T11:38:18.584Z,25.82
2022-07-29T11:39:18.592Z,25.89
2022-07-29T11:40:19.550Z,25.98
2022-07-29T11:41:18.593Z,25.98
2022-07-29T11:42:18.599Z,26.09
2022-07-29T11:43:19.627Z,26.13
2022-07-29T11:44:18.627Z,26.27
2022-07-29T11:45:42.696Z,26.34
2022-07-29T11:46:25.088Z,26.39
2022-07-29T11:47:19.732Z,26.44
2022-07-29T11:48:27.788Z,26.53
2022-07-29T11:49:19.818Z,26.47
2022-07-29T11:50:18.765Z,26.50
2022-07-29T11:51:19.800Z,26.42
2022-07-29T11:52:19.802Z,26.34
2022-07-29T11:53:18.820Z,26.41
2022-07-29T11:54:19.799Z,26.46
2022-07-29T11:55:19.899Z,26.49
2022-07-29T11:56:18.895Z,26.27
2022-07-29T11:57:18.903Z,26.12
2022-07-29T11:58:19.899Z,26.04
2022-07-29T11:59:19.962Z,26.06
2022-07-29T12:00:19.089Z,26.16
2022-07-29T12:01:19.069Z,26.08
2022-07-29T12:02:37.190Z,26.17
2022-07-29T12:03:19.055Z,26.27
2022-07-29T12:04:19.939Z,26.39
2022-07-29T12:05:36.559Z,26.47
2022-07-29T12:06:20.978Z,26.53
2022-07-29T12:07:18.264Z,26.54
2022-07-29T12:08:18.169Z,26.53
2022-07-29T12:09:21.286Z,26.59
2022-07-29T12:10:19.472Z,26.53
2022-07-29T12:11:21.423Z,26.54
2022-07-29T12:12:18.259Z,26.59
2022-07-29T12:13:18.240Z,26.57
2022-07-29T12:14:18.235Z,26.64
2022-07-29T12:15:18.251Z,26.54
2022-07-29T12:16:29.309Z,26.59
2022-07-29T12:17:19.244Z,26.57
2022-07-29T12:18:18.560Z,26.57
2022-07-29T12:19:18.268Z,26.68
2022-07-29T12:20:18.235Z,26.71
2022-07-29T12:21:18.239Z,26.71
2022-07-29T12:22:18.241Z,26.76
2022-07-29T12:23:18.912Z,26.78
2022-07-29T12:24:18.211Z,26.72
2022-07-29T12:25:32.385Z,26.81
2022-07-29T12:26:22.066Z,26.81
2022-07-29T12:27:19.230Z,26.78
2022-07-29T12:28:26.517Z,26.86
2022-07-29T12:29:20.416Z,26.75
2022-07-29T12:30:19.258Z,26.71
2022-07-29T12:31:42.049Z,26.73
2022-07-29T12:32:19.870Z,26.54
2022-07-29T12:33:18.291Z,26.41
2022-07-29T12:34:18.376Z,26.29
2022-07-29T12:35:18.331Z,26.19
2022-07-29T12:36:18.363Z,26.16
2022-07-29T12:37:18.507Z,26.11
2022-07-29T12:38:18.383Z,26.06
2022-07-29T12:39:18.429Z,26.00
2022-07-29T12:40:18.477Z,25.90
2022-07-29T12:41:18.525Z,25.90
2022-07-29T12:42:18.924Z,25.85
2022-07-29T12:43:18.567Z,25.79
2022-07-29T12:44:17.547Z,25.74
2022-07-29T12:45:17.568Z,25.69
2022-07-29T12:46:17.604Z,25.66
2022-07-29T12:47:17.595Z,25.66
2022-07-29T12:48:17.573Z,25.60
2022-07-29T12:49:17.776Z,25.59
2022-07-29T12:50:17.604Z,25.57
2022-07-29T12:51:17.610Z,25.53
2022-07-29T12:52:17.625Z,25.57
2022-07-29T12:53:17.900Z,25.61
2022-07-29T12:54:17.657Z,25.64